createdAt,value
2018-04-28T00:00:45.146Z,0.00
2018-04-28T00:01:45.203Z,0.00
2018-04-28T00:02:45.261Z,0.00
2018-04-28T00:03:45.323Z,0.00
2018-04-28T00:04:45.379Z,0.00
2018-04-28T00:05:45.439Z,0.00
2018-04-28T00:06:45.495Z,0.00
2018-04-28T00:07:45.705Z,0.00
2018-04-28T00:08:45.613Z,0.00
2018-04-28T00:09:45.670Z,0.00
2018-04-28T00:10:45.732Z,0.00
2018-04-28T00:11:45.788Z,0.00
2018-04-28T00:12:45.844Z,0.00
2018-04-28T00:13:45.903Z,0.00
2018-04-28T00:14:45.963Z,0.00
2018-04-28T00:15:46.021Z,0.00
2018-04-28T00:16:46.078Z,0.00
2018-04-28T00:17:46.137Z,0.00
2018-04-28T00:18:46.196Z,0.00
2018-04-28T00:19:46.253Z,0.00
2018-04-28T00:20:46.313Z,0.00
2018-04-28T00:21:46.370Z,0.00
2018-04-28T00:22:46.428Z,0.00
2018-04-28T00:23:46.490Z,0.00
2018-04-28T00:24:46.545Z,0.00
2018-04-28T00:25:46.620Z,0.00
2018-04-28T00:26:46.678Z,0.00
2018-04-28T00:27:46.736Z,0.00
2018-04-28T00:28:46.791Z,0.00
2018-04-28T00:29:46.849Z,0.00
2018-04-28T00:30:46.903Z,0.00
2018-04-28T00:31:46.959Z,0.00
2018-04-28T00:32:47.010Z,0.00
2018-04-28T00:33:47.069Z,0.00
2018-04-28T00:34:47.127Z,0.00
2018-04-28T00:35:47.187Z,0.00
2018-04-28T00:36:47.244Z,0.00
2018-04-28T00:37:47.305Z,0.00
2018-04-28T00:38:47.361Z,0.00
2018-04-28T00:39:47.419Z,0.00
2018-04-28T00:40:47.478Z,0.00
2018-04-28T00:41:47.535Z,0.00
2018-04-28T00:42:47.593Z,0.00
2018-04-28T00:43:47.654Z,0.00
2018-04-28T00:44:47.712Z,0.00
2018-04-28T00:45:47.766Z,0.00
2018-04-28T00:46:47.827Z,0.00
2018-04-28T00:47:47.885Z,0.00
2018-04-28T00:48:47.941Z,0.00
2018-04-28T00:49:48.000Z,0.00
2018-04-28T00:50:48.058Z,0.00
2018-04-28T00:51:48.117Z,0.00
2018-04-28T00:52:48.424Z,0.00
2018-04-28T00:53:48.233Z,0.00
2018-04-28T00:54:48.290Z,0.00
2018-04-28T00:55:48.349Z,0.00
2018-04-28T00:56:48.408Z,0.00
2018-04-28T00:57:48.464Z,0.00
2018-04-28T00:58:48.522Z,0.00
2018-04-28T00:59:48.580Z,0.00
2018-04-28T01:00:48.638Z,0.00
2018-04-28T01:01:48.696Z,0.00
2018-04-28T01:02:48.756Z,0.00
2018-04-28T01:03:49.063Z,0.00
2018-04-28T01:04:48.870Z,0.00
2018-04-28T01:05:48.929Z,0.00
2018-04-28T01:06:48.987Z,0.00
2018-04-28T01:07:49.045Z,0.00
2018-04-28T01:08:49.102Z,0.00
2018-04-28T01:09:49.312Z,0.00
2018-04-28T01:10:49.219Z,0.00
2018-04-28T01:11:49.276Z,0.00
2018-04-28T01:12:49.343Z,0.00
2018-04-28T01:13:49.391Z,0.00
2018-04-28T01:14:49.449Z,0.00
2018-04-28T01:15:49.508Z,0.00
2018-04-28T01:16:49.566Z,0.00
2018-04-28T01:17:49.623Z,0.00
2018-04-28T01:18:49.681Z,0.00
2018-04-28T01:19:49.740Z,0.00
2018-04-28T01:20:49.796Z,0.00
2018-04-28T01:21:49.855Z,0.00
2018-04-28T01:22:49.913Z,0.00
2018-04-28T01:23:49.971Z,0.00
2018-04-28T01:24:50.030Z,0.00
2018-04-28T01:25:50.087Z,0.00
2018-04-28T01:26:50.147Z,0.00
2018-04-28T01:27:50.204Z,0.00
2018-04-28T01:28:50.260Z,0.00
2018-04-28T01:29:50.317Z,0.00
2018-04-28T01:30:50.376Z,0.00
2018-04-28T01:31:50.434Z,0.00
2018-04-28T01:32:50.495Z,0.00
2018-04-28T01:33:50.549Z,0.00
2018-04-28T01:34:50.609Z,0.00
2018-04-28T01:35:50.666Z,0.00
2018-04-28T01:36:50.723Z,0.00
2018-04-28T01:37:50.781Z,0.00
2018-04-28T01:38:50.838Z,0.00
2018-04-28T01:39:50.896Z,0.00
2018-04-28T01:40:50.953Z,0.00
2018-04-28T01:41:51.012Z,0.00
2018-04-28T01:42:51.070Z,0.00
2018-04-28T01:43:51.278Z,0.00
2018-04-28T01:44:51.185Z,0.00
2018-04-28T01:45:51.258Z,0.00
2018-04-28T01:46:51.310Z,0.00
2018-04-28T01:47:51.382Z,0.00
2018-04-28T01:48:51.416Z,0.00
2018-04-28T01:49:51.474Z,0.00
2018-04-28T01:50:51.532Z,0.00
2018-04-28T01:51:51.589Z,0.00
2018-04-28T01:52:51.646Z,0.00
2018-04-28T01:53:51.705Z,0.00
2018-04-28T01:54:51.762Z,0.00
2018-04-28T01:55:51.820Z,0.00
2018-04-28T01:56:51.877Z,0.00
2018-04-28T01:57:51.936Z,0.00
2018-04-28T01:58:51.997Z,0.00
2018-04-28T01:59:52.052Z,0.00
2018-04-28T02:00:52.109Z,0.00
2018-04-28T02:01:52.166Z,0.00
2018-04-28T02:02:52.231Z,0.00
2018-04-28T02:03:52.283Z,0.00
2018-04-28T02:04:52.341Z,0.00
2018-04-28T02:05:52.397Z,0.00
2018-04-28T02:06:52.456Z,0.00
2018-04-28T02:07:52.512Z,0.00
2018-04-28T02:08:52.570Z,0.00
2018-04-28T02:09:52.661Z,0.00
2018-04-28T02:10:52.685Z,0.00
2018-04-28T02:11:52.744Z,0.00
2018-04-28T02:12:52.801Z,0.00
2018-04-28T02:13:52.859Z,0.00
2018-04-28T02:14:52.915Z,0.00
2018-04-28T02:15:52.975Z,0.00
2018-04-28T02:16:53.030Z,0.00
2018-04-28T02:17:53.089Z,0.00
2018-04-28T02:18:53.148Z,0.00
2018-04-28T02:19:53.205Z,0.00
2018-04-28T02:20:53.261Z,0.00
2018-04-28T02:21:53.320Z,0.00
2018-04-28T02:22:53.376Z,0.00
2018-04-28T02:23:53.434Z,0.00
2018-04-28T02:24:53.492Z,0.00
2018-04-28T02:25:53.549Z,0.00
2018-04-28T02:26:53.607Z,0.00
2018-04-28T02:27:53.665Z,0.00
2018-04-28T02:28:53.722Z,0.00
2018-04-28T02:29:53.780Z,0.00
2018-04-28T02:30:53.841Z,0.00
2018-04-28T02:31:53.895Z,0.00
2018-04-28T02:32:53.953Z,0.00
2018-04-28T02:33:54.010Z,0.00
2018-04-28T02:34:54.068Z,0.00
2018-04-28T02:35:54.126Z,0.00
2018-04-28T02:36:54.184Z,0.00
2018-04-28T02:37:54.240Z,0.00
2018-04-28T02:38:54.298Z,0.00
2018-04-28T02:39:54.356Z,0.00
2018-04-28T02:40:54.413Z,0.00
2018-04-28T02:41:54.469Z,0.00
2018-04-28T02:42:54.527Z,0.00
2018-04-28T02:43:54.596Z,0.00
2018-04-28T02:44:54.653Z,0.00
2018-04-28T02:45:54.700Z,0.00
2018-04-28T02:46:54.758Z,0.00
2018-04-28T02:47:54.817Z,0.00
2018-04-28T02:48:54.873Z,0.00
2018-04-28T02:49:54.931Z,0.00
2018-04-28T02:50:54.988Z,0.00
2018-04-28T02:51:55.048Z,0.00
2018-04-28T02:52:55.102Z,0.00
2018-04-28T02:53:55.161Z,0.00
2018-04-28T02:54:55.218Z,0.00
2018-04-28T02:55:55.276Z,0.00
2018-04-28T02:56:55.332Z,0.00
2018-04-28T02:57:55.392Z,0.00
2018-04-28T02:58:55.450Z,0.00
2018-04-28T02:59:55.509Z,0.00
2018-04-28T03:00:55.562Z,0.00
2018-04-28T03:01:55.622Z,0.00
2018-04-28T03:02:55.679Z,0.00
2018-04-28T03:03:55.737Z,0.00
2018-04-28T03:04:55.794Z,0.00
2018-04-28T03:05:55.853Z,0.00
2018-04-28T03:06:55.910Z,0.00
2018-04-28T03:07:55.968Z,0.00
2018-04-28T03:08:56.023Z,0.00
2018-04-28T03:09:56.083Z,0.00
2018-04-28T03:10:56.139Z,0.00
2018-04-28T03:11:56.198Z,0.00
2018-04-28T03:12:56.253Z,0.00
2018-04-28T03:13:56.314Z,0.00
2018-04-28T03:14:56.371Z,0.00
2018-04-28T03:15:56.427Z,0.00
2018-04-28T03:16:56.485Z,0.00
2018-04-28T03:17:56.551Z,0.00
2018-04-28T03:18:56.599Z,0.00
2018-04-28T03:19:56.659Z,0.00
2018-04-28T03:20:56.715Z,0.00
2018-04-28T03:21:56.923Z,0.00
2018-04-28T03:22:56.830Z,0.00
2018-04-28T03:23:56.888Z,0.00
2018-04-28T03:24:56.945Z,0.00
2018-04-28T03:25:57.003Z,0.00
2018-04-28T03:26:57.060Z,0.00
2018-04-28T03:27:57.118Z,0.00
2018-04-28T03:28:57.175Z,0.00
2018-04-28T03:29:57.231Z,0.00
2018-04-28T03:30:57.291Z,0.00
2018-04-28T03:31:57.349Z,0.00
2018-04-28T03:32:57.405Z,0.00
2018-04-28T03:33:57.461Z,0.00
2018-04-28T03:34:57.520Z,0.00
2018-04-28T03:35:57.578Z,0.00
2018-04-28T03:36:57.633Z,0.00
2018-04-28T03:37:57.693Z,0.00
2018-04-28T03:38:57.749Z,0.00
2018-04-28T03:39:57.811Z,0.00
2018-04-28T03:40:57.863Z,0.00
2018-04-28T03:41:57.920Z,0.00
2018-04-28T03:42:57.978Z,0.00
2018-04-28T03:43:58.037Z,0.00
2018-04-28T03:44:58.093Z,0.00
2018-04-28T03:45:58.149Z,0.00
2018-04-28T03:46:58.207Z,0.00
2018-04-28T03:47:58.264Z,0.00
2018-04-28T03:48:58.321Z,0.00
2018-04-28T03:49:58.378Z,0.00
2018-04-28T03:50:58.440Z,0.00
2018-04-28T03:51:58.494Z,0.00
2018-04-28T03:52:58.550Z,0.00
2018-04-28T03:53:58.609Z,0.00
2018-04-28T03:54:58.665Z,0.00
2018-04-28T03:55:58.724Z,0.00
2018-04-28T03:56:58.780Z,0.00
2018-04-28T03:57:58.837Z,0.00
2018-04-28T03:58:58.904Z,0.00
2018-04-28T03:59:58.954Z,0.00
2018-04-28T04:00:59.010Z,0.00
2018-04-28T04:01:59.070Z,0.00
2018-04-28T04:02:59.126Z,0.00
2018-04-28T04:03:59.182Z,0.00
2018-04-28T04:04:59.239Z,0.00
2018-04-28T04:05:59.304Z,5.63
2018-04-28T04:06:59.356Z,5.63
2018-04-28T04:07:59.414Z,5.63
2018-04-28T04:08:59.468Z,5.63
2018-04-28T04:09:59.527Z,5.63
2018-04-28T04:10:59.585Z,5.63
2018-04-28T04:11:59.643Z,5.63
2018-04-28T04:12:59.948Z,11.25
2018-04-28T04:13:59.757Z,11.25
2018-04-28T04:14:59.813Z,11.25
2018-04-28T04:15:59.871Z,11.25
2018-04-28T04:16:59.928Z,11.25
2018-04-28T04:17:59.984Z,16.88
2018-04-28T04:19:00.042Z,16.88
2018-04-28T04:20:00.101Z,16.88
2018-04-28T04:21:00.157Z,16.88
2018-04-28T04:22:00.214Z,22.50
2018-04-28T04:23:00.271Z,22.50
2018-04-28T04:24:00.328Z,22.50
2018-04-28T04:25:00.385Z,22.50
2018-04-28T04:26:00.442Z,28.13
2018-04-28T04:27:00.503Z,28.13
2018-04-28T04:28:00.564Z,28.13
2018-04-28T04:29:00.613Z,33.75
2018-04-28T04:30:00.672Z,33.75
2018-04-28T04:31:00.978Z,33.75
2018-04-28T04:32:00.897Z,39.38
2018-04-28T04:33:00.843Z,39.38
2018-04-28T04:34:00.910Z,39.38
2018-04-28T04:35:00.959Z,39.38
2018-04-28T04:36:01.015Z,45.00
2018-04-28T04:37:01.071Z,45.00
2018-04-28T04:38:01.133Z,45.00
2018-04-28T04:39:01.186Z,50.63
2018-04-28T04:40:01.243Z,50.63
2018-04-28T04:41:01.301Z,50.63
2018-04-28T04:42:01.357Z,56.25
2018-04-28T04:43:01.415Z,56.25
2018-04-28T04:44:01.472Z,61.88
2018-04-28T04:45:01.532Z,61.88
2018-04-28T04:46:01.589Z,61.88
2018-04-28T04:47:01.644Z,67.50
2018-04-28T04:48:01.703Z,67.50
2018-04-28T04:49:01.759Z,73.13
2018-04-28T04:50:01.815Z,73.13
2018-04-28T04:51:01.874Z,73.13
2018-04-28T04:52:01.930Z,78.75
2018-04-28T04:53:01.986Z,78.75
2018-04-28T04:54:02.047Z,84.38
2018-04-28T04:55:02.102Z,84.38
2018-04-28T04:56:02.159Z,90.00
2018-04-28T04:57:02.216Z,90.00
2018-04-28T04:58:02.274Z,95.63
2018-04-28T04:59:02.349Z,101.25
2018-04-28T05:00:02.388Z,101.25
2018-04-28T05:01:02.445Z,101.25
2018-04-28T05:02:02.503Z,101.25
2018-04-28T05:03:02.560Z,101.25
2018-04-28T05:04:02.619Z,101.25
2018-04-28T05:05:02.675Z,101.25
2018-04-28T05:06:02.732Z,101.25
2018-04-28T05:07:02.791Z,101.25
2018-04-28T05:08:02.850Z,95.63
2018-04-28T05:09:02.904Z,95.63
2018-04-28T05:10:02.963Z,95.63
2018-04-28T05:11:03.021Z,95.63
2018-04-28T05:12:03.079Z,101.25
2018-04-28T05:13:03.136Z,101.25
2018-04-28T05:14:03.192Z,101.25
2018-04-28T05:15:03.250Z,106.88
2018-04-28T05:16:03.308Z,106.88
2018-04-28T05:17:03.365Z,106.88
2018-04-28T05:18:03.573Z,106.88
2018-04-28T05:19:03.540Z,106.88
2018-04-28T05:20:03.539Z,106.88
2018-04-28T05:21:03.596Z,106.88
2018-04-28T05:22:03.656Z,106.88
2018-04-28T05:23:03.712Z,112.50
2018-04-28T05:24:03.769Z,112.50
2018-04-28T05:25:03.825Z,112.50
2018-04-28T05:26:03.888Z,112.50
2018-04-28T05:27:03.941Z,118.13
2018-04-28T05:28:03.998Z,118.13
2018-04-28T05:29:04.054Z,118.13
2018-04-28T05:30:04.113Z,118.13
2018-04-28T05:31:04.173Z,123.75
2018-04-28T05:32:04.229Z,123.75
2018-04-28T05:33:04.286Z,129.38
2018-04-28T05:34:04.344Z,135.00
2018-04-28T05:35:04.401Z,135.00
2018-04-28T05:36:04.537Z,140.63
2018-04-28T05:37:04.517Z,151.88
2018-04-28T05:38:04.575Z,151.88
2018-04-28T05:39:04.631Z,151.88
2018-04-28T05:40:04.690Z,151.88
2018-04-28T05:41:04.748Z,157.50
2018-04-28T05:42:04.805Z,157.50
2018-04-28T05:43:04.863Z,157.50
2018-04-28T05:44:04.920Z,163.13
2018-04-28T05:45:04.977Z,163.13
2018-04-28T05:46:05.035Z,163.13
2018-04-28T05:47:05.093Z,163.13
2018-04-28T05:48:05.151Z,163.13
2018-04-28T05:49:05.208Z,157.50
2018-04-28T05:50:05.266Z,157.50
2018-04-28T05:51:05.324Z,157.50
2018-04-28T05:52:05.382Z,157.50
2018-04-28T05:53:05.488Z,151.88
2018-04-28T05:54:05.496Z,146.25
2018-04-28T05:55:05.555Z,140.63
2018-04-28T05:56:05.614Z,140.63
2018-04-28T05:57:05.670Z,146.25
2018-04-28T05:58:05.747Z,146.25
2018-04-28T05:59:05.785Z,146.25
2018-04-28T06:00:05.845Z,146.25
2018-04-28T06:01:05.904Z,146.25
2018-04-28T06:02:05.960Z,146.25
2018-04-28T06:03:06.018Z,146.25
2018-04-28T06:04:06.088Z,146.25
2018-04-28T06:05:06.287Z,151.88
2018-04-28T06:06:06.192Z,151.88
2018-04-28T06:07:06.251Z,157.50
2018-04-28T06:08:06.309Z,157.50
2018-04-28T06:09:06.366Z,157.50
2018-04-28T06:10:06.424Z,151.88
2018-04-28T06:11:06.484Z,151.88
2018-04-28T06:12:06.540Z,146.25
2018-04-28T06:13:06.599Z,146.25
2018-04-28T06:14:06.743Z,146.25
2018-04-28T06:15:06.715Z,146.25
2018-04-28T06:16:06.775Z,146.25
2018-04-28T06:17:06.830Z,151.88
2018-04-28T06:18:06.889Z,151.88
2018-04-28T06:19:06.947Z,151.88
2018-04-28T06:20:07.038Z,157.50
2018-04-28T06:21:07.063Z,157.50
2018-04-28T06:22:07.122Z,157.50
2018-04-28T06:23:07.180Z,163.13
2018-04-28T06:24:07.238Z,163.13
2018-04-28T06:25:07.297Z,168.75
2018-04-28T06:26:07.355Z,168.75
2018-04-28T06:27:07.414Z,168.75
2018-04-28T06:28:07.471Z,180.00
2018-04-28T06:29:07.530Z,191.25
2018-04-28T06:30:07.589Z,196.88
2018-04-28T06:31:07.646Z,202.50
2018-04-28T06:32:07.704Z,202.50
2018-04-28T06:33:08.114Z,208.13
2018-04-28T06:34:07.823Z,208.13
2018-04-28T06:35:07.886Z,213.75
2018-04-28T06:36:07.939Z,208.13
2018-04-28T06:37:07.996Z,191.25
2018-04-28T06:38:08.055Z,196.88
2018-04-28T06:39:08.113Z,196.88
2018-04-28T06:40:08.173Z,213.75
2018-04-28T06:41:08.314Z,213.75
2018-04-28T06:42:08.290Z,196.88
2018-04-28T06:43:08.349Z,202.50
2018-04-28T06:44:08.407Z,202.50
2018-04-28T06:45:08.618Z,219.38
2018-04-28T06:46:08.524Z,219.38
2018-04-28T06:47:08.585Z,219.38
2018-04-28T06:48:08.643Z,225.00
2018-04-28T06:49:08.701Z,213.75
2018-04-28T06:50:08.762Z,230.63
2018-04-28T06:51:08.881Z,230.63
2018-04-28T06:52:08.879Z,230.63
2018-04-28T06:53:08.937Z,230.63
2018-04-28T06:54:08.997Z,225.00
2018-04-28T06:55:09.056Z,225.00
2018-04-28T06:56:09.931Z,225.00
2018-04-28T06:57:09.174Z,219.38
2018-04-28T06:58:09.235Z,230.63
2018-04-28T06:59:09.293Z,230.63
2018-04-28T07:00:09.357Z,230.63
2018-04-28T07:01:09.413Z,236.25
2018-04-28T07:02:09.472Z,230.63
2018-04-28T07:03:09.531Z,230.63
2018-04-28T07:04:09.591Z,219.38
2018-04-28T07:05:09.651Z,219.38
2018-04-28T07:06:09.709Z,230.63
2018-04-28T07:07:09.771Z,225.00
2018-04-28T07:08:09.829Z,225.00
2018-04-28T07:09:09.893Z,241.88
2018-04-28T07:10:09.948Z,253.13
2018-04-28T07:11:10.010Z,253.13
2018-04-28T07:12:10.069Z,253.13
2018-04-28T07:13:10.128Z,253.13
2018-04-28T07:14:10.192Z,241.88
2018-04-28T07:15:10.248Z,225.00
2018-04-28T07:16:10.307Z,225.00
2018-04-28T07:17:10.369Z,247.50
2018-04-28T07:18:10.426Z,258.75
2018-04-28T07:19:10.487Z,258.75
2018-04-28T07:20:10.546Z,258.75
2018-04-28T07:21:10.687Z,270.00
2018-04-28T07:22:10.667Z,275.63
2018-04-28T07:23:10.725Z,264.38
2018-04-28T07:24:10.936Z,253.13
2018-04-28T07:25:10.846Z,253.13
2018-04-28T07:26:10.905Z,253.13
2018-04-28T07:27:10.964Z,270.00
2018-04-28T07:28:11.025Z,264.38
2018-04-28T07:29:11.088Z,264.38
2018-04-28T07:30:11.147Z,258.75
2018-04-28T07:31:11.204Z,270.00
2018-04-28T07:32:11.265Z,270.00
2018-04-28T07:33:11.325Z,258.75
2018-04-28T07:34:11.384Z,275.63
2018-04-28T07:35:11.450Z,281.25
2018-04-28T07:36:11.505Z,303.75
2018-04-28T07:37:11.566Z,309.38
2018-04-28T07:38:11.626Z,298.13
2018-04-28T07:39:11.686Z,309.38
2018-04-28T07:40:11.746Z,309.38
2018-04-28T07:41:11.806Z,298.13
2018-04-28T07:42:11.877Z,292.50
2018-04-28T07:43:11.926Z,270.00
2018-04-28T07:44:11.986Z,270.00
2018-04-28T07:45:12.048Z,281.25
2018-04-28T07:46:12.107Z,286.88
2018-04-28T07:47:12.167Z,292.50
2018-04-28T07:48:12.228Z,320.63
2018-04-28T07:49:12.286Z,354.38
2018-04-28T07:50:12.350Z,371.25
2018-04-28T07:51:12.411Z,376.88
2018-04-28T07:52:12.476Z,354.38
2018-04-28T07:53:12.528Z,365.63
2018-04-28T07:54:12.616Z,388.13
2018-04-28T07:55:12.651Z,427.50
2018-04-28T07:56:12.710Z,416.25
2018-04-28T07:57:12.769Z,438.75
2018-04-28T07:58:12.831Z,466.88
2018-04-28T07:59:12.893Z,495.00
2018-04-28T08:00:12.955Z,495.00
2018-04-28T08:01:13.013Z,489.38
2018-04-28T08:02:13.072Z,489.38
2018-04-28T08:03:13.134Z,534.38
2018-04-28T08:04:13.198Z,568.13
2018-04-28T08:05:13.256Z,579.38
2018-04-28T08:06:13.316Z,585.00
2018-04-28T08:07:13.377Z,540.00
2018-04-28T08:08:13.439Z,523.13
2018-04-28T08:09:13.499Z,511.88
2018-04-28T08:10:13.560Z,500.63
2018-04-28T08:11:13.622Z,489.38
2018-04-28T08:12:13.684Z,466.88
2018-04-28T08:13:13.747Z,466.88
2018-04-28T08:14:13.806Z,455.63
2018-04-28T08:15:13.878Z,450.00
2018-04-28T08:16:13.928Z,444.38
2018-04-28T08:17:13.989Z,399.38
2018-04-28T08:18:14.050Z,382.50
2018-04-28T08:19:14.110Z,348.75
2018-04-28T08:20:14.172Z,343.13
2018-04-28T08:21:14.233Z,354.38
2018-04-28T08:22:14.294Z,365.63
2018-04-28T08:23:14.356Z,365.63
2018-04-28T08:24:14.417Z,388.13
2018-04-28T08:25:14.477Z,393.75
2018-04-28T08:26:14.542Z,376.88
2018-04-28T08:27:14.601Z,348.75
2018-04-28T08:28:14.666Z,331.88
2018-04-28T08:29:14.723Z,326.25
2018-04-28T08:30:14.785Z,337.50
2018-04-28T08:31:14.845Z,365.63
2018-04-28T08:32:14.911Z,410.63
2018-04-28T08:33:14.968Z,478.13
2018-04-28T08:34:15.030Z,556.88
2018-04-28T08:35:15.090Z,618.75
2018-04-28T08:36:15.153Z,607.50
2018-04-28T08:37:15.246Z,562.50
2018-04-28T08:38:15.276Z,540.00
2018-04-28T08:39:15.337Z,506.25
2018-04-28T08:40:15.399Z,478.13
2018-04-28T08:41:15.460Z,478.13
2018-04-28T08:42:15.521Z,483.75
2018-04-28T08:43:15.584Z,489.38
2018-04-28T08:44:15.669Z,472.50
2018-04-28T08:45:15.783Z,483.75
2018-04-28T08:46:15.768Z,506.25
2018-04-28T08:47:15.831Z,511.88
2018-04-28T08:48:16.043Z,511.88
2018-04-28T08:49:15.958Z,540.00
2018-04-28T08:50:16.016Z,573.75
2018-04-28T08:51:16.078Z,585.00
2018-04-28T08:52:16.145Z,585.00
2018-04-28T08:53:16.204Z,579.38
2018-04-28T08:54:16.268Z,663.75
2018-04-28T08:55:16.326Z,731.25
2018-04-28T08:56:16.389Z,731.25
2018-04-28T08:57:16.450Z,703.13
2018-04-28T08:58:16.512Z,714.38
2018-04-28T08:59:16.576Z,759.38
2018-04-28T09:00:16.638Z,821.25
2018-04-28T09:01:16.704Z,866.25
2018-04-28T09:02:16.766Z,843.75
2018-04-28T09:03:16.825Z,832.50
2018-04-28T09:04:16.886Z,855.00
2018-04-28T09:05:16.949Z,950.63
2018-04-28T09:06:17.012Z,883.13
2018-04-28T09:07:17.075Z,798.75
2018-04-28T09:08:17.139Z,765.00
2018-04-28T09:09:17.198Z,748.13
2018-04-28T09:10:17.411Z,821.25
2018-04-28T09:11:17.325Z,922.50
2018-04-28T09:12:17.388Z,984.38
2018-04-28T09:13:17.449Z,928.13
2018-04-28T09:14:17.514Z,821.25
2018-04-28T09:15:17.576Z,838.13
2018-04-28T09:16:17.790Z,804.38
2018-04-28T09:17:17.702Z,798.75
2018-04-28T09:18:17.764Z,821.25
2018-04-28T09:19:17.829Z,838.13
2018-04-28T09:20:17.893Z,905.63
2018-04-28T09:21:17.957Z,905.63
2018-04-28T09:22:18.021Z,894.38
2018-04-28T09:23:18.082Z,905.63
2018-04-28T09:24:18.147Z,928.13
2018-04-28T09:25:18.209Z,1001.25
2018-04-28T09:26:18.309Z,928.13
2018-04-28T09:27:18.336Z,894.38
2018-04-28T09:28:18.401Z,855.00
2018-04-28T09:29:18.465Z,810.00
2018-04-28T09:30:18.528Z,770.63
2018-04-28T09:31:18.592Z,753.75
2018-04-28T09:32:18.656Z,866.25
2018-04-28T09:33:18.719Z,967.50
2018-04-28T09:34:18.782Z,871.88
2018-04-28T09:35:18.847Z,748.13
2018-04-28T09:36:18.912Z,686.25
2018-04-28T09:37:18.975Z,652.50
2018-04-28T09:38:19.039Z,736.88
2018-04-28T09:39:19.104Z,793.13
2018-04-28T09:40:19.169Z,838.13
2018-04-28T09:41:19.231Z,832.50
2018-04-28T09:42:19.298Z,838.13
2018-04-28T09:43:19.359Z,916.88
2018-04-28T09:44:19.424Z,916.88
2018-04-28T09:45:19.490Z,911.25
2018-04-28T09:46:19.552Z,855.00
2018-04-28T09:47:19.614Z,826.88
2018-04-28T09:48:19.679Z,798.75
2018-04-28T09:49:19.742Z,748.13
2018-04-28T09:50:19.810Z,742.50
2018-04-28T09:51:19.870Z,770.63
2018-04-28T09:52:19.935Z,731.25
2018-04-28T09:53:20.010Z,742.50
2018-04-28T09:54:20.062Z,736.88
2018-04-28T09:55:20.130Z,686.25
2018-04-28T09:56:20.189Z,753.75
2018-04-28T09:57:20.253Z,826.88
2018-04-28T09:58:20.317Z,956.25
2018-04-28T09:59:20.380Z,1158.75
2018-04-28T10:00:20.445Z,1175.63
2018-04-28T10:01:20.508Z,1175.63
2018-04-28T10:02:20.663Z,1153.13
2018-04-28T10:03:20.635Z,1125.00
2018-04-28T10:04:20.701Z,1108.13
2018-04-28T10:05:20.761Z,1096.88
2018-04-28T10:06:20.826Z,1164.38
2018-04-28T10:07:20.891Z,1119.38
2018-04-28T10:08:20.954Z,1158.75
2018-04-28T10:09:21.018Z,1164.38
2018-04-28T10:10:21.082Z,1170.00
2018-04-28T10:11:21.146Z,1186.88
2018-04-28T10:12:21.211Z,1175.63
2018-04-28T10:13:21.274Z,1130.63
2018-04-28T10:14:21.339Z,1108.13
2018-04-28T10:15:21.404Z,995.63
2018-04-28T10:16:21.468Z,961.88
2018-04-28T10:17:21.531Z,978.75
2018-04-28T10:18:21.596Z,973.13
2018-04-28T10:19:21.660Z,1029.38
2018-04-28T10:20:21.868Z,1006.88
2018-04-28T10:21:21.790Z,1001.25
2018-04-28T10:22:21.854Z,1260.00
2018-04-28T10:23:21.918Z,2278.13
2018-04-28T10:24:22.235Z,933.75
2018-04-28T10:25:22.048Z,793.13
2018-04-28T10:26:22.114Z,832.50
2018-04-28T10:27:22.178Z,2469.38
2018-04-28T10:28:22.242Z,1687.50
2018-04-28T10:29:22.310Z,2548.13
2018-04-28T10:30:22.522Z,1051.88
2018-04-28T10:31:22.438Z,1732.50
2018-04-28T10:32:22.503Z,939.38
2018-04-28T10:33:22.571Z,928.13
2018-04-28T10:34:22.636Z,956.25
2018-04-28T10:35:22.700Z,1001.25
2018-04-28T10:36:22.765Z,1321.88
2018-04-28T10:37:22.831Z,2581.88
2018-04-28T10:38:22.894Z,2497.50
2018-04-28T10:39:22.962Z,2323.13
2018-04-28T10:40:23.026Z,1243.13
2018-04-28T10:41:23.091Z,2261.25
2018-04-28T10:42:23.158Z,2711.25
2018-04-28T10:43:23.226Z,2373.75
2018-04-28T10:44:23.293Z,2255.63
2018-04-28T10:45:23.358Z,2278.13
2018-04-28T10:46:23.427Z,2638.13
2018-04-28T10:47:23.494Z,2559.38
2018-04-28T10:48:23.562Z,2503.13
2018-04-28T10:49:23.630Z,2272.50
2018-04-28T10:50:23.697Z,2199.38
2018-04-28T10:51:23.768Z,2182.50
2018-04-28T10:52:23.836Z,2176.88
2018-04-28T10:53:23.905Z,2199.38
2018-04-28T10:54:23.976Z,2300.63
2018-04-28T10:55:24.045Z,2272.50
2018-04-28T10:56:24.118Z,2210.63
2018-04-28T10:57:24.185Z,1636.88
2018-04-28T10:58:24.255Z,1366.88
2018-04-28T10:59:24.323Z,2137.50
2018-04-28T11:00:24.396Z,2086.88
2018-04-28T11:01:24.466Z,2053.13
2018-04-28T11:02:24.535Z,1957.50
2018-04-28T11:03:24.607Z,2019.38
2018-04-28T11:04:24.677Z,2401.88
2018-04-28T11:05:24.746Z,2193.75
2018-04-28T11:06:24.816Z,2306.25
2018-04-28T11:07:24.888Z,1963.13
2018-04-28T11:08:24.957Z,1833.75
2018-04-28T11:09:25.029Z,2070.00
2018-04-28T11:10:25.098Z,1845.00
2018-04-28T11:11:25.170Z,2053.13
2018-04-28T11:12:25.241Z,2013.75
2018-04-28T11:13:25.316Z,2413.13
2018-04-28T11:14:25.382Z,2216.25
2018-04-28T11:15:25.456Z,2278.13
2018-04-28T11:16:25.524Z,2480.63
2018-04-28T11:17:25.594Z,2221.88
2018-04-28T11:18:25.665Z,2171.25
2018-04-28T11:19:25.736Z,1636.88
2018-04-28T11:20:25.807Z,1395.00
2018-04-28T11:21:25.876Z,1479.38
2018-04-28T11:22:25.947Z,1867.50
2018-04-28T11:23:26.018Z,3543.75
2018-04-28T11:24:26.089Z,3735.00
2018-04-28T11:25:26.171Z,3465.00
2018-04-28T11:26:26.229Z,3009.38
2018-04-28T11:27:26.299Z,2255.63
2018-04-28T11:28:26.371Z,3740.63
2018-04-28T11:29:26.441Z,3060.00
2018-04-28T11:30:26.526Z,3256.88
2018-04-28T11:31:26.581Z,2306.25
2018-04-28T11:32:26.649Z,1485.00
2018-04-28T11:33:26.727Z,1175.63
2018-04-28T11:34:26.788Z,1085.63
2018-04-28T11:35:26.860Z,1063.13
2018-04-28T11:36:26.928Z,1125.00
2018-04-28T11:37:26.997Z,1141.88
2018-04-28T11:38:27.132Z,1282.50
2018-04-28T11:39:27.134Z,2323.13
2018-04-28T11:40:27.204Z,2143.13
2018-04-28T11:41:27.271Z,2115.00
2018-04-28T11:42:27.338Z,1721.25
2018-04-28T11:43:27.407Z,1603.13
2018-04-28T11:44:27.474Z,1552.50
2018-04-28T11:45:27.544Z,1974.38
2018-04-28T11:46:27.613Z,1681.88
2018-04-28T11:47:27.678Z,1935.00
2018-04-28T11:48:27.745Z,2255.63
2018-04-28T11:49:27.811Z,3993.75
2018-04-28T11:50:27.879Z,4078.13
2018-04-28T11:51:27.947Z,3256.88
2018-04-28T11:52:28.013Z,3493.13
2018-04-28T11:53:28.080Z,4336.88
2018-04-28T11:54:28.147Z,3538.13
2018-04-28T11:55:28.215Z,1856.25
2018-04-28T11:56:28.285Z,1254.38
2018-04-28T11:57:28.351Z,2075.63
2018-04-28T11:58:28.420Z,1237.50
2018-04-28T11:59:28.491Z,1321.88
2018-04-28T12:00:28.562Z,1051.88
2018-04-28T12:01:28.625Z,1119.38
2018-04-28T12:02:28.692Z,1597.50
2018-04-28T12:03:28.760Z,2272.50
2018-04-28T12:04:28.829Z,1918.13
2018-04-28T12:05:28.896Z,3915.00
2018-04-28T12:06:28.963Z,4741.88
2018-04-28T12:07:29.031Z,4950.00
2018-04-28T12:08:29.099Z,4854.38
2018-04-28T12:09:29.171Z,4843.13
2018-04-28T12:10:29.234Z,4798.13
2018-04-28T12:11:29.304Z,4747.50
2018-04-28T12:12:29.392Z,4584.38
2018-04-28T12:13:29.445Z,3937.50
2018-04-28T12:14:29.509Z,3268.13
2018-04-28T12:15:29.578Z,4438.13
2018-04-28T12:16:29.647Z,4021.88
2018-04-28T12:17:29.715Z,3498.75
2018-04-28T12:18:29.785Z,3600.00
2018-04-28T12:19:29.855Z,4466.25
2018-04-28T12:20:29.923Z,3290.63
2018-04-28T12:21:29.993Z,2716.88
2018-04-28T12:22:30.079Z,3009.38
2018-04-28T12:23:30.131Z,4230.00
2018-04-28T12:24:30.201Z,4539.38
2018-04-28T12:25:30.273Z,4269.38
2018-04-28T12:26:30.339Z,4185.00
2018-04-28T12:27:30.409Z,2536.88
2018-04-28T12:28:30.479Z,2306.25
2018-04-28T12:29:30.565Z,3256.88
2018-04-28T12:30:30.623Z,1828.13
2018-04-28T12:31:30.738Z,2171.25
2018-04-28T12:32:30.757Z,1389.38
2018-04-28T12:33:30.828Z,1625.63
2018-04-28T12:34:30.896Z,1226.25
2018-04-28T12:35:30.964Z,1383.75
2018-04-28T12:36:31.035Z,1473.75
2018-04-28T12:37:31.102Z,1721.25
2018-04-28T12:38:31.172Z,1777.50
2018-04-28T12:39:31.244Z,1771.88
2018-04-28T12:40:31.310Z,2070.00
2018-04-28T12:41:31.375Z,1732.50